< < Back
Terminal Aerodrome Forecast


Current Version              Previous Versions:   1  2  3  4  5  6  7  8  9  

Terminal Aerodrome Forecast

208
FTUS42 KGSP 240121 AAC
TAFCLT
TAF AMD
KCLT 240121Z 2401/2424 14013G20KT 3SM SHRA BR OVC005
      TEMPO 2401/2402 22020G30KT 1SM -TSRA BR OVC005CB
     FM240200 17013G20KT 2SM SHRA BR OVC003 WS020/19045KT
     FM240400 18013G23KT 5SM SHRA OVC003
     FM240800 20010G18KT P6SM OVC003
     FM241600 20014G20KT P6SM BKN060=



Latest METAR

556
SAUS70 KWBC 240100
MTRCLT
METAR KCLT 240052Z 14016G21KT 1 3/4SM -RA BR OVC005 16/14 A2977 RMK AO2
SFC VIS 3 SLP079 P0009 T01560144


USA.gov is the U.S. government's official web portal to all federal, state and local government web resources and services.